Time;durP1;ratioP1;P1;durP2;ratioP2;P2;SDS_P1;SDS_P2;PMS_P1;PMS_P2;Temp;Humidity;BMP_temperature;BMP_pressure;BME280_temperature;BME280_humidity;BME280_pressure;Samples;Min_cycle;Max_cycle;Signal;HPM_P1;HPM_P2
2022/06/27 00:01:15;;;;;;;0.32;0.32;;;;;;;24.38;44.86;96299.31;6126627;23;20030;-79
2022/06/27 00:03:42;;;;;;;1.10;0.40;;;;;;;24.38;44.76;96299.31;6127178;23;20026;-79
2022/06/27 00:06:10;;;;;;;0.43;0.43;;;;;;;24.39;44.91;96284.94;6126711;23;20478;-79
2022/06/27 00:08:38;;;;;;;1.60;0.40;;;;;;;24.39;44.76;96292.94;6126782;23;20065;-79
2022/06/27 00:11:06;;;;;;;1.60;0.60;;;;;;;24.39;44.62;96316.94;6128283;23;20033;-80
2022/06/27 00:13:35;;;;;;;1.27;0.30;;;;;;;24.39;44.37;96324.94;6128504;23;20084;-80
2022/06/27 00:16:02;;;;;;;0.40;0.40;;;;;;;24.40;44.27;96319.31;6127794;23;20018;-79
2022/06/27 00:18:42;;;;;;;0.50;0.50;;;;;;;24.42;44.64;96316.38;6127192;23;20022;-80
2022/06/27 00:21:09;;;;;;;1.67;0.40;;;;;;;24.43;44.08;96321.44;6127170;23;20052;-79
2022/06/27 00:23:37;;;;;;;0.70;0.50;;;;;;;24.44;44.08;96314.22;6128309;23;20021;-79
2022/06/27 00:26:05;;;;;;;1.30;0.40;;;;;;;24.43;44.20;96326.75;6127336;23;20018;-79
2022/06/27 00:28:32;;;;;;;0.60;0.40;;;;;;;24.45;44.10;96337.16;6127245;23;20033;-79
2022/06/27 00:31:01;;;;;;;1.75;0.68;;;;;;;24.44;44.68;96347.00;6125672;23;20524;-79
2022/06/27 00:33:29;;;;;;;3.47;0.47;;;;;;;24.45;44.99;96342.50;6126134;23;20092;-79
2022/06/27 00:35:57;;;;;;;2.03;0.55;;;;;;;24.46;46.81;96360.06;6126396;23;20018;-79
2022/06/27 00:38:24;;;;;;;4.97;0.85;;;;;;;24.45;46.86;96369.16;6126181;23;20022;-79
2022/06/27 00:40:52;;;;;;;1.27;0.63;;;;;;;24.44;47.74;96391.53;6125807;23;20510;-79
2022/06/27 00:43:19;;;;;;;2.65;0.68;;;;;;;24.42;48.26;96401.69;6126371;23;20021;-79
2022/06/27 00:45:47;;;;;;;1.38;0.70;;;;;;;24.38;48.96;96420.09;6126466;23;20053;-79
2022/06/27 00:48:16;;;;;;;0.98;0.90;;;;;;;24.33;49.97;96433.44;6126713;23;20025;-79
2022/06/27 00:50:45;;;;;;;1.83;1.13;;;;;;;24.29;51.04;96444.94;6125917;23;20506;-79
2022/06/27 00:53:13;;;;;;;2.55;1.38;;;;;;;24.19;52.60;96473.22;6126503;23;20100;-79
2022/06/27 00:55:41;;;;;;;3.85;1.70;;;;;;;24.05;53.67;96509.50;6126232;23;20029;-79
2022/06/27 00:58:09;;;;;;;1.60;1.50;;;;;;;23.92;54.75;96539.34;6126134;23;20398;-79
2022/06/27 01:00:37;;;;;;;3.75;2.13;;;;;;;23.85;54.72;96574.25;6125694;23;20427;-79
2022/06/27 01:03:05;;;;;;;3.28;2.30;;;;;;;23.76;55.36;96608.63;6125869;23;20383;-79
2022/06/27 01:05:34;;;;;;;4.82;2.05;;;;;;;23.66;55.72;96624.59;6126154;23;20100;-79
2022/06/27 01:08:02;;;;;;;2.78;2.40;;;;;;;23.55;56.45;96633.59;6126297;23;20029;-79
2022/06/27 01:10:30;;;;;;;3.53;2.58;;;;;;;23.42;56.55;96649.03;6126015;23;20025;-79
2022/06/27 01:12:57;;;;;;;2.75;2.40;;;;;;;23.29;57.10;96648.72;6126004;23;20105;-79
2022/06/27 01:15:25;;;;;;;3.13;2.40;;;;;;;23.17;57.62;96654.25;6125579;23;20038;-79
2022/06/27 01:17:52;;;;;;;2.67;2.10;;;;;;;23.07;58.66;96662.19;6125595;23;20022;-79
2022/06/27 01:20:20;;;;;;;2.22;2.03;;;;;;;22.99;58.75;96666.94;6125180;23;20041;-79
2022/06/27 01:22:49;;;;;;;2.85;2.30;;;;;;;22.92;59.53;96700.97;6125646;23;20045;-79
2022/06/27 01:25:20;;;;;;;4.60;2.03;;;;;;;22.83;60.30;96729.09;6125911;23;20060;-79
2022/06/27 04:47:33;;;;;;;4.85;2.63;;;;;;;20.34;70.58;96451.31;6185807;23;20032;-80
2022/06/27 04:50:14;;;;;;;2.38;1.67;;;;;;;20.30;70.04;96456.28;6184949;23;20013;-80
2022/06/27 04:53:11;;;;;;;3.72;2.03;;;;;;;20.25;69.40;96458.09;6176830;23;20036;-80
2022/06/27 04:58:29;;;;;;;2.20;1.42;;;;;;;20.15;69.32;96470.16;6181583;23;20061;-80
2022/06/27 05:01:12;;;;;;;2.15;1.25;;;;;;;20.08;69.67;96464.25;6184664;23;20028;-80
2022/06/27 06:25:41;;;;;;;2.22;1.00;;;;;;;20.69;70.64;96480.09;6167381;23;20028;-80
2022/06/27 06:31:14;;;;;;;3.20;1.55;;;;;;;20.82;70.88;96494.78;6170557;23;20021;-80
2022/06/27 06:34:02;;;;;;;1.38;0.70;;;;;;;20.87;70.22;96492.19;6183927;23;19998;-79
2022/06/27 06:36:43;;;;;;;0.68;0.68;;;;;;;20.92;70.02;96500.19;6183408;23;20061;-79
2022/06/27 06:39:17;;;;;;;1.88;0.68;;;;;;;20.99;70.06;96505.31;6153740;23;20010;-80
2022/06/27 06:47:53;;;;;;;1.67;0.75;;;;;;;21.23;70.16;96532.34;6175564;23;20036;-80
2022/06/27 06:50:26;;;;;;;0.82;0.82;;;;;;;21.33;69.83;96539.56;6158869;23;20005;-80
2022/06/27 08:25:01;;;;;;;0.45;0.40;;;;;;;22.92;63.23;96626.47;6183380;23;20032;-79
2022/06/27 08:27:37;;;;;;;2.20;0.47;;;;;;;22.95;63.28;96628.59;6184590;23;20362;-79
2022/06/27 12:20:48;;;;;;;3.85;1.80;;;;;;;23.07;59.42;96797.88;6168545;23;20037;-80
2022/06/27 12:42:50;;;;;;;5.60;2.58;;;;;;;23.10;60.52;96786.75;6184277;23;20046;-80
2022/06/27 16:54:00;;;;;;;3.47;2.03;;;;;;;22.81;58.19;96859.66;6156259;23;20040;-76
2022/06/27 16:56:29;;;;;;;2.83;1.90;;;;;;;22.79;58.01;96866.31;6157215;23;20028;-77
2022/06/27 16:58:56;;;;;;;2.72;2.10;;;;;;;22.78;58.99;96870.00;6156413;23;20088;-76
2022/06/27 17:01:24;;;;;;;1.88;1.75;;;;;;;22.77;58.92;96868.41;6155773;23;20032;-76
2022/06/27 17:03:52;;;;;;;2.05;1.35;;;;;;;22.76;58.45;96862.31;6155857;23;20025;-76
2022/06/27 17:28:37;;;;;;;4.03;2.15;;;;;;;22.49;57.17;96904.03;6168322;23;20232;-80
2022/06/27 17:33:56;;;;;;;2.10;1.90;;;;;;;22.45;58.02;96942.81;6174571;23;20216;-79
2022/06/27 18:09:31;;;;;;;5.18;2.92;;;;;;;22.07;60.13;96987.78;6159187;23;20027;-74
2022/06/27 18:12:00;;;;;;;3.28;2.97;;;;;;;22.04;60.68;96977.66;6155981;23;20025;-76
2022/06/27 18:14:28;;;;;;;3.30;3.00;;;;;;;22.05;61.04;96973.13;6155807;23;20472;-76
2022/06/27 18:16:56;;;;;;;4.35;2.88;;;;;;;22.05;60.19;96947.34;6158598;23;20025;-75
2022/06/27 18:19:23;;;;;;;3.33;3.08;;;;;;;22.00;61.01;96952.63;6167370;23;20025;-76
2022/06/27 18:21:51;;;;;;;3.53;3.10;;;;;;;21.96;61.04;96935.56;6172151;23;20251;-76
2022/06/27 18:24:19;;;;;;;2.80;2.60;;;;;;;21.92;61.00;96921.97;6161655;23;20049;-74
2022/06/27 18:26:49;;;;;;;2.38;2.17;;;;;;;21.90;62.28;96912.63;6156064;23;20408;-75
2022/06/27 18:29:17;;;;;;;3.13;2.85;;;;;;;21.91;62.54;96903.59;6156556;23;20405;-75
2022/06/27 18:31:45;;;;;;;3.53;2.95;;;;;;;21.90;62.90;96909.97;6155326;23;20057;-77
2022/06/27 18:34:16;;;;;;;4.88;2.90;;;;;;;21.88;61.79;96904.13;6155752;23;20022;-79
2022/06/27 18:36:45;;;;;;;3.05;2.83;;;;;;;21.88;62.17;96928.00;6155442;23;20025;-81
2022/06/27 19:38:23;;;;;;;2.97;2.65;;;;;;;20.82;65.83;96995.88;6181054;23;20026;-79
2022/06/27 19:41:00;;;;;;;3.00;2.67;;;;;;;20.78;65.71;97008.00;6181290;23;20005;-78
2022/06/27 19:46:09;;;;;;;3.50;3.20;;;;;;;20.70;67.13;97034.88;6177706;23;20044;-79
2022/06/27 19:58:51;;;;;;;5.82;2.75;;;;;;;20.60;67.07;97032.00;6181269;23;20009;-82
2022/06/27 20:01:59;;;;;;;3.92;2.58;;;;;;;20.58;69.72;97043.66;6181051;23;20029;-81
2022/06/27 20:10:42;;;;;;;3.83;3.00;;;;;;;20.57;69.17;97118.09;6179239;23;20063;-80
2022/06/27 20:13:34;;;;;;;3.22;2.92;;;;;;;20.56;69.41;97149.06;6184222;23;20018;-79
2022/06/27 20:16:23;;;;;;;3.13;2.83;;;;;;;20.57;70.80;97160.50;6184210;23;20056;-79
2022/06/27 20:19:07;;;;;;;4.13;2.95;;;;;;;20.60;71.71;97153.94;6174750;23;20013;-80
2022/06/27 20:22:03;;;;;;;3.38;2.70;;;;;;;20.56;70.95;97149.06;6184193;23;20017;-79
2022/06/27 20:25:23;;;;;;;3.47;2.78;;;;;;;20.57;70.30;97145.44;6154623;23;20032;-79
2022/06/27 20:28:14;;;;;;;3.17;2.95;;;;;;;20.59;71.12;97150.47;6154883;23;20037;-80
2022/06/27 20:56:16;;;;;;;3.70;3.38;;;;;;;20.39;69.80;97140.22;6182769;23;20024;-79
2022/06/27 21:11:50;;;;;;;3.28;2.55;;;;;;;20.42;70.43;97168.88;6164897;23;20033;-77
2022/06/27 21:14:19;;;;;;;2.42;2.20;;;;;;;20.41;72.26;97164.63;6165076;23;20028;-78
2022/06/27 21:16:48;;;;;;;3.45;2.50;;;;;;;20.46;73.31;97163.94;6164737;23;20029;-79
2022/06/27 21:19:16;;;;;;;3.50;3.20;;;;;;;20.44;70.84;97156.22;6135715;23;20018;-76
2022/06/27 21:21:44;;;;;;;6.60;4.18;;;;;;;20.38;70.41;97173.84;6135156;23;20056;-78
2022/06/27 21:24:12;;;;;;;5.53;5.03;;;;;;;20.39;71.48;97185.25;6134614;23;20030;-78
2022/06/27 21:26:41;;;;;;;4.00;3.70;;;;;;;20.43;72.87;97188.25;6135830;23;20022;-78
2022/06/27 21:29:11;;;;;;;4.68;2.90;;;;;;;20.44;71.38;97193.31;6135679;23;20022;-80
2022/06/27 21:31:43;;;;;;;2.80;2.60;;;;;;;20.47;71.96;97187.56;6134929;23;20044;-78
2022/06/27 21:34:11;;;;;;;2.83;2.60;;;;;;;20.49;72.33;97188.16;6136024;23;20032;-79
2022/06/27 21:36:39;;;;;;;3.15;2.88;;;;;;;20.49;72.02;97164.28;6136034;23;20451;-77
2022/06/27 21:39:07;;;;;;;3.53;3.28;;;;;;;20.43;69.75;97162.56;6135944;23;20075;-78
2022/06/27 21:41:35;;;;;;;3.25;2.97;;;;;;;20.38;69.77;97175.69;6135293;23;20083;-77
2022/06/27 21:44:03;;;;;;;2.63;2.22;;;;;;;20.39;71.50;97172.00;6135564;23;20026;-78
2022/06/27 21:46:33;;;;;;;3.08;2.88;;;;;;;20.44;72.40;97171.31;6134045;23;20096;-76
2022/06/27 21:49:00;;;;;;;2.70;2.50;;;;;;;20.40;70.62;97165.69;6134208;23;20018;-78
2022/06/27 21:51:28;;;;;;;4.53;2.90;;;;;;;20.33;70.27;97159.66;6134651;23;20336;-78
2022/06/27 21:53:56;;;;;;;3.67;3.25;;;;;;;20.23;70.23;97164.75;6134804;23;20025;-79
2022/06/27 21:56:24;;;;;;;3.10;2.80;;;;;;;20.18;70.66;97162.75;6136044;23;20044;-79
2022/06/27 21:58:52;;;;;;;3.47;3.17;;;;;;;20.14;70.41;97162.44;6136510;23;20046;-78
2022/06/27 22:01:19;;;;;;;4.03;3.45;;;;;;;20.12;70.14;97163.72;6135950;23;20450;-79
2022/06/27 22:03:48;;;;;;;4.68;3.28;;;;;;;20.05;70.25;97153.22;6136222;23;20525;-76
2022/06/27 22:06:18;;;;;;;4.38;3.45;;;;;;;20.01;70.47;97152.06;6135444;23;20101;-78
2022/06/27 22:08:45;;;;;;;4.13;3.75;;;;;;;19.96;70.57;97141.31;6134714;23;20041;-79
2022/06/27 22:11:13;;;;;;;5.80;4.00;;;;;;;19.95;70.85;97131.78;6134394;23;20053;-78
2022/06/27 22:13:40;;;;;;;2.83;2.63;;;;;;;19.95;71.12;97131.78;6134420;23;20026;-79
2022/06/27 22:16:08;;;;;;;4.00;3.65;;;;;;;19.95;71.22;97131.78;6134350;23;20026;-78
2022/06/27 22:18:36;;;;;;;4.32;3.92;;;;;;;19.92;71.14;97134.91;6134174;23;20024;-78
2022/06/27 22:21:05;;;;;;;4.07;3.60;;;;;;;19.87;71.68;97129.47;6133069;23;20346;-78
2022/06/27 22:23:33;;;;;;;3.42;3.10;;;;;;;19.86;71.34;97133.16;6133606;23;20057;-76
2022/06/27 22:26:00;;;;;;;2.90;2.70;;;;;;;19.87;73.46;97134.75;6133359;23;20470;-80
2022/06/27 22:28:28;;;;;;;5.95;3.47;;;;;;;19.94;74.31;97146.03;6132707;23;20026;-79
2022/06/27 22:30:56;;;;;;;3.45;3.15;;;;;;;20.00;74.57;97150.44;6135324;23;20049;-79
2022/06/27 22:33:23;;;;;;;3.97;3.03;;;;;;;20.04;75.54;97151.59;6135505;23;20050;-80
2022/06/27 22:35:51;;;;;;;2.90;2.60;;;;;;;20.10;76.02;97155.97;6136178;23;20458;-80
2022/06/27 22:38:20;;;;;;;5.70;3.50;;;;;;;20.10;73.63;97157.81;6135093;23;20482;-79
2022/06/27 22:40:47;;;;;;;3.78;3.47;;;;;;;20.09;73.59;97153.56;6135086;23;20026;-80
2022/06/27 22:43:15;;;;;;;4.40;4.00;;;;;;;20.07;72.45;97155.63;6134987;23;20065;-78
2022/06/27 22:45:43;;;;;;;4.75;3.67;;;;;;;20.05;72.85;97142.63;6135404;23;20026;-78
2022/06/27 22:48:10;;;;;;;4.28;3.30;;;;;;;20.03;72.67;97144.69;6133758;23;20030;-78
2022/06/27 22:50:44;;;;;;;3.03;2.72;;;;;;;20.06;74.39;97146.88;6133943;23;20531;-76
2022/06/27 22:53:12;;;;;;;2.95;2.65;;;;;;;20.10;75.19;97150.69;6134567;23;20026;-77
2022/06/27 22:55:41;;;;;;;3.83;3.35;;;;;;;20.10;74.14;97161.28;6133081;23;20033;-77
2022/06/27 22:58:09;;;;;;;3.83;3.53;;;;;;;20.11;73.71;97157.56;6134216;23;20146;-78
2022/06/27 23:00:36;;;;;;;3.65;2.90;;;;;;;20.11;73.99;97168.16;6132809;23;20053;-77
2022/06/27 23:03:04;;;;;;;4.13;3.70;;;;;;;20.09;72.23;97164.16;6132838;23;20030;-80
2022/06/27 23:05:32;;;;;;;3.38;3.08;;;;;;;20.10;74.11;97166.56;6133071;23;20029;-78
2022/06/27 23:07:59;;;;;;;3.15;2.65;;;;;;;20.11;74.17;97162.88;6132193;23;20049;-78
2022/06/27 23:10:27;;;;;;;2.80;2.60;;;;;;;20.13;74.36;97170.59;6131591;23;20053;-76
2022/06/27 23:12:56;;;;;;;3.55;3.10;;;;;;;20.12;74.74;97172.44;6132827;23;20046;-77
2022/06/27 23:15:23;;;;;;;4.32;3.92;;;;;;;20.10;72.98;97166.56;6136312;23;20366;-78
2022/06/27 23:17:51;;;;;;;3.63;3.33;;;;;;;20.08;73.87;97163.34;6134973;23;20017;-77
2022/06/27 23:20:18;;;;;;;3.70;2.60;;;;;;;20.05;73.71;97163.81;6134966;23;20042;-77
2022/06/27 23:22:46;;;;;;;4.22;3.92;;;;;;;20.01;72.79;97160.00;6135311;23;20350;-78
2022/06/27 23:25:14;;;;;;;4.35;4.05;;;;;;;19.97;72.98;97164.13;6134750;23;20037;-79
2022/06/27 23:27:42;;;;;;;4.13;3.83;;;;;;;19.95;72.77;97164.34;6133364;23;20101;-77
2022/06/27 23:30:12;;;;;;;4.10;3.70;;;;;;;19.96;74.56;97170.44;6132712;23;20053;-77
2022/06/27 23:32:39;;;;;;;3.33;3.03;;;;;;;19.97;74.69;97172.09;6133741;23;20068;-76
2022/06/27 23:35:08;;;;;;;4.22;3.78;;;;;;;19.94;73.36;97162.75;6134699;23;20053;-79
2022/06/27 23:37:36;;;;;;;4.22;3.38;;;;;;;19.95;74.44;97166.22;6135851;23;20025;-78
2022/06/27 23:40:04;;;;;;;4.57;4.07;;;;;;;19.94;73.55;97169.88;6133928;23;20053;-76
2022/06/27 23:42:32;;;;;;;4.50;4.10;;;;;;;19.94;74.09;97167.22;6132759;23;20022;-78
2022/06/27 23:45:00;;;;;;;4.03;3.30;;;;;;;19.94;74.86;97156.63;6134405;23;20053;-78
2022/06/27 23:47:29;;;;;;;4.32;3.53;;;;;;;19.94;75.59;97159.28;6133112;23;20073;-77
2022/06/27 23:49:56;;;;;;;3.85;3.47;;;;;;;19.94;75.58;97157.47;6131234;23;20417;-77
2022/06/27 23:52:24;;;;;;;4.30;3.88;;;;;;;19.93;74.38;97157.69;6130908;23;20018;-76
2022/06/27 23:54:52;;;;;;;5.03;4.15;;;;;;;19.92;73.79;97158.72;6132739;23;20050;-77
2022/06/27 23:57:19;;;;;;;3.95;3.65;;;;;;;19.87;73.88;97162.03;6137123;23;20041;-79
2022/06/27 23:59:47;;;;;;;3.03;2.83;;;;;;;19.87;76.05;97167.31;6136587;23;20025;-80
